Time;durP1;ratioP1;P1;durP2;ratioP2;P2;SDS_P1;SDS_P2;PMS_P1;PMS_P2;Temp;Humidity;BMP_temperature;BMP_pressure;BME280_temperature;BME280_humidity;BME280_pressure;Samples;Min_cycle;Max_cycle;Signal;HPM_P1;HPM_P2
2021/03/31 00:01:33;;;;;;;6.07;3.40;;;7.90;99.90;;;;;;5079804;28;20235;-73
2021/03/31 00:03:58;;;;;;;5.93;3.30;;;7.80;99.90;;;;;;5079848;28;20214;-72
2021/03/31 00:06:24;;;;;;;5.17;3.20;;;7.70;99.90;;;;;;5082945;28;20555;-72
2021/03/31 00:08:50;;;;;;;4.33;3.00;;;7.70;99.90;;;;;;5079640;28;20190;-72
2021/03/31 00:11:15;;;;;;;7.23;3.10;;;7.70;99.90;;;;;;5079550;28;20188;-72
2021/03/31 00:13:41;;;;;;;10.33;3.13;;;7.70;99.90;;;;;;5080654;28;20577;-74
2021/03/31 00:16:07;;;;;;;2.77;2.57;;;7.60;99.90;;;;;;5079839;28;20222;-72
2021/03/31 00:18:32;;;;;;;8.90;4.73;;;7.60;99.90;;;;;;5085514;28;20193;-72
2021/03/31 00:20:58;;;;;;;4.73;2.90;;;7.60;99.90;;;;;;5083983;28;20264;-72
2021/03/31 00:23:27;;;;;;;3.43;2.67;;;7.50;99.90;;;;;;5083023;28;20219;-72
2021/03/31 00:25:53;;;;;;;12.13;3.23;;;7.50;99.90;;;;;;5084714;28;20501;-72
2021/03/31 00:28:20;;;;;;;6.50;2.90;;;7.50;99.90;;;;;;5085138;28;20448;-72
2021/03/31 00:30:46;;;;;;;4.40;2.87;;;7.40;99.90;;;;;;5083678;28;20447;-72
2021/03/31 00:33:12;;;;;;;4.27;3.00;;;7.40;99.90;;;;;;5081576;28;20498;-72
2021/03/31 00:35:38;;;;;;;4.37;2.70;;;7.30;99.90;;;;;;5082831;28;20425;-72
2021/03/31 00:38:05;;;;;;;3.53;3.23;;;7.30;99.90;;;;;;5083819;28;20423;-72
2021/03/31 00:40:40;;;;;;;4.23;2.70;;;7.20;99.90;;;;;;5085092;28;20444;-72
2021/03/31 00:43:07;;;;;;;4.90;3.10;;;7.30;99.90;;;;;;5083595;28;20512;-72
2021/03/31 00:45:32;;;;;;;5.57;2.90;;;7.20;99.90;;;;;;5082522;28;20464;-72
2021/03/31 00:47:58;;;;;;;4.27;3.20;;;7.20;99.90;;;;;;5083561;28;20439;-72
2021/03/31 00:50:24;;;;;;;10.10;3.57;;;7.20;99.90;;;;;;5080637;28;20182;-73
2021/03/31 00:52:51;;;;;;;6.30;3.40;;;7.10;99.90;;;;;;5082801;28;20190;-72
2021/03/31 00:55:20;;;;;;;8.70;3.50;;;7.10;99.90;;;;;;5083775;28;20186;-72
2021/03/31 00:57:45;;;;;;;5.40;3.40;;;7.10;99.90;;;;;;5082227;28;20469;-72
2021/03/31 01:00:12;;;;;;;5.07;3.23;;;7.10;99.90;;;;;;5084499;28;20438;-72
2021/03/31 01:02:39;;;;;;;5.33;3.70;;;7.00;99.90;;;;;;5079284;28;20203;-73
2021/03/31 01:05:12;;;;;;;3.33;3.07;;;7.00;99.90;;;;;;5083240;28;20787;-72
2021/03/31 01:07:38;;;;;;;5.13;3.27;;;7.00;99.90;;;;;;5081872;28;20423;-74
2021/03/31 01:10:06;;;;;;;7.33;4.03;;;6.90;99.90;;;;;;5080956;28;20439;-72
2021/03/31 01:13:09;;;;;;;5.90;3.13;;;6.90;99.90;;;;;;5082660;28;20490;-72
2021/03/31 01:16:04;;;;;;;9.23;5.00;;;6.90;99.90;;;;;;5084971;28;20539;-74
2021/03/31 01:18:32;;;;;;;5.40;3.20;;;6.90;99.90;;;;;;5072298;28;20919;-72
2021/03/31 01:21:44;;;;;;;7.63;3.40;;;6.80;99.90;;;;;;5084270;28;20954;-72
2021/03/31 01:24:50;;;;;;;3.77;3.00;;;6.70;99.90;;;;;;5083585;28;20500;-72
2021/03/31 01:27:25;;;;;;;5.67;3.10;;;6.70;99.90;;;;;;5084182;28;20492;-72
2021/03/31 01:30:25;;;;;;;3.13;2.93;;;6.70;99.90;;;;;;5081735;28;20440;-73
2021/03/31 01:33:24;;;;;;;3.60;3.27;;;6.60;99.90;;;;;;5076211;28;20577;-72
2021/03/31 01:35:52;;;;;;;6.40;3.27;;;6.60;99.90;;;;;;5082510;28;20444;-72
2021/03/31 01:38:22;;;;;;;8.27;3.90;;;6.50;99.90;;;;;;5084490;28;20951;-73
2021/03/31 01:40:49;;;;;;;7.40;4.00;;;6.50;99.90;;;;;;5082147;28;20426;-73
2021/03/31 01:43:18;;;;;;;3.93;3.63;;;6.50;99.90;;;;;;5082506;28;20481;-72
2021/03/31 01:45:48;;;;;;;5.63;3.53;;;6.40;99.90;;;;;;5083350;28;20791;-72
2021/03/31 01:48:19;;;;;;;5.80;4.10;;;6.40;99.90;;;;;;5080014;28;20434;-72
2021/03/31 01:50:50;;;;;;;6.90;3.60;;;6.40;99.90;;;;;;5081647;28;20698;-72
2021/03/31 01:53:17;;;;;;;4.23;3.80;;;6.40;99.90;;;;;;5082693;28;20461;-72
2021/03/31 01:55:44;;;;;;;6.83;3.23;;;6.40;99.90;;;;;;5082359;28;20453;-73
2021/03/31 01:58:10;;;;;;;7.53;3.50;;;6.30;99.90;;;;;;5078015;28;20444;-72
2021/03/31 02:00:37;;;;;;;6.70;3.60;;;6.30;99.90;;;;;;5084231;28;20465;-72
2021/03/31 02:03:02;;;;;;;7.53;4.43;;;6.30;99.90;;;;;;5080627;28;20464;-72
2021/03/31 02:05:29;;;;;;;4.53;3.80;;;6.30;99.90;;;;;;5077044;28;20947;-72
2021/03/31 02:07:55;;;;;;;7.87;4.37;;;6.20;99.90;;;;;;5080974;28;20188;-72
2021/03/31 02:10:24;;;;;;;3.70;3.23;;;6.20;99.90;;;;;;5082593;28;20463;-72
2021/03/31 02:12:51;;;;;;;8.60;4.80;;;6.20;99.90;;;;;;5082752;28;20203;-72
2021/03/31 02:15:23;;;;;;;6.80;4.30;;;6.10;99.90;;;;;;5079093;28;20442;-72
2021/03/31 02:17:50;;;;;;;5.47;3.70;;;6.10;99.90;;;;;;5081378;28;20471;-72
2021/03/31 02:20:19;;;;;;;6.53;3.90;;;6.10;99.90;;;;;;5080215;28;20450;-72
2021/03/31 02:22:45;;;;;;;8.60;4.83;;;6.10;99.90;;;;;;5083546;28;20444;-72
2021/03/31 02:25:13;;;;;;;5.33;4.00;;;6.00;99.90;;;;;;5081726;28;20443;-73
2021/03/31 02:27:39;;;;;;;5.47;3.97;;;6.00;99.90;;;;;;5082671;28;20426;-72
2021/03/31 02:30:09;;;;;;;8.60;4.00;;;6.00;99.90;;;;;;5079618;28;20809;-72
2021/03/31 02:32:36;;;;;;;7.07;4.87;;;6.00;99.90;;;;;;5080828;28;20466;-72
2021/03/31 02:35:03;;;;;;;5.90;4.23;;;5.90;99.90;;;;;;5077293;28;20986;-72
2021/03/31 02:37:30;;;;;;;4.50;4.10;;;5.90;99.90;;;;;;5081683;28;20475;-72
2021/03/31 02:39:56;;;;;;;4.20;3.70;;;5.90;99.90;;;;;;5080773;28;20907;-71
2021/03/31 02:42:24;;;;;;;8.60;3.87;;;5.80;99.90;;;;;;5080982;28;20465;-72
2021/03/31 02:44:53;;;;;;;5.43;3.70;;;5.80;99.90;;;;;;5082498;28;20784;-72
2021/03/31 02:47:23;;;;;;;8.27;4.10;;;5.80;99.90;;;;;;5080002;28;20450;-74
2021/03/31 02:49:51;;;;;;;12.47;4.10;;;5.80;99.90;;;;;;5082144;28;20418;-73
2021/03/31 02:52:19;;;;;;;7.13;4.10;;;5.80;99.90;;;;;;5083006;28;20440;-73
2021/03/31 02:54:47;;;;;;;8.50;4.83;;;5.80;99.90;;;;;;5080067;28;20459;-72
2021/03/31 02:57:12;;;;;;;7.37;4.43;;;5.80;99.90;;;;;;5078778;28;20835;-72
2021/03/31 02:59:41;;;;;;;4.00;3.50;;;5.70;99.90;;;;;;5082470;28;20916;-72
2021/03/31 03:02:11;;;;;;;8.70;4.57;;;5.70;99.90;;;;;;5079136;28;20218;-72
2021/03/31 03:04:38;;;;;;;6.43;4.40;;;5.70;99.90;;;;;;5079779;28;20765;-72
2021/03/31 03:07:04;;;;;;;8.47;4.10;;;5.60;99.90;;;;;;5081707;28;20530;-74
2021/03/31 03:09:30;;;;;;;9.70;4.70;;;5.60;99.90;;;;;;5080916;28;20449;-74
2021/03/31 03:11:57;;;;;;;6.37;4.20;;;5.70;99.90;;;;;;5081243;28;20472;-72
2021/03/31 03:14:24;;;;;;;5.80;4.57;;;5.60;99.90;;;;;;5081768;28;20788;-71
2021/03/31 03:16:50;;;;;;;4.63;3.77;;;5.60;99.90;;;;;;5077796;28;20475;-74
2021/03/31 03:19:15;;;;;;;6.10;4.40;;;5.60;99.90;;;;;;5078786;28;20446;-72
2021/03/31 03:21:41;;;;;;;4.43;3.93;;;5.50;99.90;;;;;;5079705;28;20176;-72
2021/03/31 03:24:11;;;;;;;11.73;4.60;;;5.50;99.90;;;;;;5080869;28;20214;-72
2021/03/31 03:26:37;;;;;;;5.93;3.97;;;5.50;99.90;;;;;;5079667;28;20420;-72
2021/03/31 03:29:04;;;;;;;7.80;4.07;;;5.50;99.90;;;;;;5079205;28;20445;-72
2021/03/31 03:31:31;;;;;;;9.90;4.10;;;5.40;99.90;;;;;;5077567;28;20526;-72
2021/03/31 03:33:57;;;;;;;10.20;4.30;;;5.40;99.90;;;;;;5078160;28;20466;-73
2021/03/31 03:36:23;;;;;;;6.37;3.73;;;5.40;99.90;;;;;;5080706;28;20881;-72
2021/03/31 03:38:49;;;;;;;11.10;4.40;;;5.40;99.90;;;;;;5079998;28;20180;-72
2021/03/31 03:41:14;;;;;;;6.80;4.73;;;5.30;99.90;;;;;;5076443;28;20554;-72
2021/03/31 03:43:41;;;;;;;10.53;4.33;;;5.30;99.90;;;;;;5080524;28;20860;-72
2021/03/31 03:46:09;;;;;;;8.60;4.27;;;5.30;99.90;;;;;;5080164;28;20542;-72
2021/03/31 03:48:35;;;;;;;5.63;4.00;;;5.30;99.90;;;;;;5078104;28;20933;-71
2021/03/31 03:51:07;;;;;;;8.10;4.67;;;5.30;99.90;;;;;;5077901;28;20418;-72
2021/03/31 03:53:33;;;;;;;5.13;3.40;;;5.20;99.90;;;;;;5078300;28;20419;-73
2021/03/31 03:56:00;;;;;;;4.83;4.37;;;5.30;99.90;;;;;;5081221;28;20548;-71
2021/03/31 03:58:26;;;;;;;4.83;4.17;;;5.20;99.90;;;;;;5079476;28;20904;-72
2021/03/31 04:00:56;;;;;;;8.80;4.23;;;5.20;99.90;;;;;;5080189;28;20459;-73
2021/03/31 04:03:22;;;;;;;5.53;4.53;;;5.20;99.90;;;;;;5079810;28;20750;-72
2021/03/31 04:05:47;;;;;;;6.00;4.30;;;5.20;99.90;;;;;;5076378;28;20441;-72
2021/03/31 04:08:13;;;;;;;11.53;4.40;;;5.20;99.90;;;;;;5082066;28;20177;-73
2021/03/31 04:10:40;;;;;;;7.17;4.60;;;5.10;99.90;;;;;;5079723;28;20193;-72
2021/03/31 04:13:06;;;;;;;6.20;4.30;;;5.10;99.90;;;;;;5079785;28;20205;-72
2021/03/31 04:15:33;;;;;;;8.53;5.00;;;5.10;99.90;;;;;;5080642;28;20444;-72
2021/03/31 04:18:01;;;;;;;7.70;4.93;;;5.10;99.90;;;;;;5080025;28;20461;-72
2021/03/31 04:20:27;;;;;;;15.93;5.57;;;5.00;99.90;;;;;;5080403;28;20868;-71
2021/03/31 04:22:55;;;;;;;13.10;4.70;;;5.00;99.90;;;;;;5080442;28;20467;-72
2021/03/31 04:25:23;;;;;;;7.13;5.40;;;5.00;99.90;;;;;;5080078;28;20419;-72
2021/03/31 04:27:51;;;;;;;12.10;4.90;;;5.00;99.90;;;;;;5082015;28;20447;-72
2021/03/31 04:30:19;;;;;;;9.83;4.17;;;5.00;99.90;;;;;;5079056;28;20421;-72
2021/03/31 04:32:47;;;;;;;8.53;5.03;;;5.00;99.90;;;;;;5079549;28;20496;-72
2021/03/31 04:35:15;;;;;;;7.07;5.33;;;5.00;99.90;;;;;;5082134;28;20463;-72
2021/03/31 04:37:41;;;;;;;8.03;4.77;;;5.00;99.90;;;;;;5079466;28;20474;-72
2021/03/31 04:40:14;;;;;;;11.27;4.67;;;5.00;99.90;;;;;;5081628;28;20522;-72
2021/03/31 04:42:40;;;;;;;7.07;5.03;;;5.00;99.90;;;;;;5077930;28;20212;-72
2021/03/31 04:45:07;;;;;;;12.23;5.60;;;5.00;99.90;;;;;;5078730;28;20810;-72
2021/03/31 04:47:34;;;;;;;9.43;5.50;;;5.00;99.90;;;;;;5079336;28;20193;-73
2021/03/31 04:49:59;;;;;;;7.40;5.43;;;5.00;99.90;;;;;;5081151;28;20805;-74
2021/03/31 04:52:25;;;;;;;6.00;5.10;;;5.00;99.90;;;;;;5080519;28;20535;-74
2021/03/31 04:54:51;;;;;;;9.63;5.87;;;5.10;99.90;;;;;;5081081;28;20186;-73
2021/03/31 04:57:17;;;;;;;9.83;6.40;;;5.10;99.90;;;;;;5083078;28;20465;-72
2021/03/31 04:59:42;;;;;;;9.40;6.00;;;5.10;99.90;;;;;;5075755;28;20198;-72
2021/03/31 05:02:08;;;;;;;12.63;5.47;;;5.10;99.90;;;;;;5081165;28;20248;-71
2021/03/31 05:04:33;;;;;;;9.00;5.90;;;5.20;99.90;;;;;;5080659;28;20198;-69
2021/03/31 05:06:59;;;;;;;15.70;5.73;;;5.20;99.90;;;;;;5083138;28;20216;-69
2021/03/31 05:09:24;;;;;;;9.43;5.97;;;5.30;99.90;;;;;;5084334;28;20186;-70
2021/03/31 05:11:50;;;;;;;8.00;6.10;;;5.40;99.90;;;;;;5083078;28;20180;-69
2021/03/31 05:14:15;;;;;;;12.50;6.23;;;5.40;99.90;;;;;;5083003;28;20237;-70
2021/03/31 05:16:41;;;;;;;12.50;5.57;;;5.40;99.90;;;;;;5082049;28;20217;-70
2021/03/31 05:19:06;;;;;;;15.53;6.43;;;5.50;99.90;;;;;;5082572;28;20185;-69
2021/03/31 05:21:32;;;;;;;14.10;7.20;;;5.60;99.90;;;;;;5084593;28;20288;-69
2021/03/31 05:23:57;;;;;;;8.17;5.63;;;5.60;99.90;;;;;;5079530;28;20218;-69
2021/03/31 05:26:23;;;;;;;12.30;6.43;;;5.60;99.90;;;;;;5080419;28;20199;-69
2021/03/31 05:28:48;;;;;;;8.17;6.20;;;5.70;99.90;;;;;;5082214;28;20218;-69
2021/03/31 05:31:14;;;;;;;13.77;6.13;;;5.80;99.90;;;;;;5085024;28;20181;-70
2021/03/31 05:33:39;;;;;;;9.60;5.70;;;5.80;99.90;;;;;;5081109;28;20224;-71
2021/03/31 05:36:05;;;;;;;13.80;5.63;;;5.90;99.90;;;;;;5084438;28;20887;-69
2021/03/31 05:38:31;;;;;;;7.27;5.53;;;6.00;99.90;;;;;;5084948;28;20188;-69
2021/03/31 05:40:59;;;;;;;10.93;5.70;;;6.10;99.90;;;;;;5082908;28;20480;-69
2021/03/31 05:43:25;;;;;;;11.07;5.97;;;6.20;99.90;;;;;;5082508;28;20259;-69
2021/03/31 05:45:55;;;;;;;8.57;6.10;;;6.40;99.90;;;;;;5083746;28;20419;-69
2021/03/31 05:48:21;;;;;;;16.20;6.30;;;6.40;99.90;;;;;;5081987;28;20928;-70
2021/03/31 05:50:47;;;;;;;9.30;5.50;;;6.50;99.90;;;;;;5084059;28;20510;-69
2021/03/31 05:53:12;;;;;;;12.40;6.83;;;6.70;99.90;;;;;;5080523;28;20462;-69
2021/03/31 05:55:38;;;;;;;9.07;6.00;;;6.80;99.90;;;;;;5084669;28;20176;-70
2021/03/31 05:58:04;;;;;;;12.80;6.27;;;6.90;99.90;;;;;;5081331;28;20305;-69
2021/03/31 06:00:32;;;;;;;9.87;6.00;;;7.00;99.90;;;;;;5079387;28;20689;-70
2021/03/31 06:03:05;;;;;;;12.03;6.03;;;7.20;99.90;;;;;;5081859;28;20948;-70
2021/03/31 06:05:34;;;;;;;10.87;5.80;;;7.30;99.90;;;;;;5083347;28;20429;-70
2021/03/31 06:08:00;;;;;;;11.80;6.27;;;7.50;99.90;;;;;;5080722;28;20941;-71
2021/03/31 06:10:27;;;;;;;11.53;6.20;;;7.90;99.90;;;;;;5081802;28;20422;-70
2021/03/31 06:13:02;;;;;;;12.40;5.90;;;8.60;99.90;;;;;;5082354;28;20447;-70
2021/03/31 06:15:34;;;;;;;8.27;6.27;;;9.40;99.90;;;;;;5080354;28;20416;-70
2021/03/31 06:18:08;;;;;;;10.40;6.30;;;10.60;99.90;;;;;;5082586;28;20465;-70
2021/03/31 06:20:42;;;;;;;13.17;6.23;;;12.20;99.90;;;;;;5080559;28;20423;-70
2021/03/31 06:25:54;;;;;;;13.00;6.87;;;16.00;99.90;;;;;;5080714;28;20426;-71
2021/03/31 06:28:29;;;;;;;8.97;5.50;;;17.10;99.90;;;;;;5080825;28;20453;-71
2021/03/31 06:31:14;;;;;;;9.63;5.73;;;17.40;99.90;;;;;;5081196;28;20453;-71
2021/03/31 06:33:43;;;;;;;10.93;7.10;;;17.20;99.90;;;;;;5079811;28;20448;-72
2021/03/31 06:36:10;;;;;;;12.80;7.43;;;17.20;99.90;;;;;;5080194;28;20459;-71
2021/03/31 06:38:39;;;;;;;16.67;8.57;;;16.90;99.90;;;;;;5083265;28;20421;-72
2021/03/31 06:41:22;;;;;;;14.00;7.70;;;16.50;99.90;;;;;;5080769;28;20426;-71
2021/03/31 06:44:18;;;;;;;11.23;8.10;;;15.90;99.90;;;;;;5080236;28;20435;-71
2021/03/31 06:49:18;;;;;;;14.00;8.67;;;14.50;99.90;;;;;;5082516;28;20421;-71
2021/03/31 06:51:44;;;;;;;18.93;8.53;;;14.10;99.90;;;;;;5080165;28;20529;-71
2021/03/31 06:54:19;;;;;;;16.33;8.57;;;13.70;99.90;;;;;;5082817;28;20694;-70
2021/03/31 06:56:57;;;;;;;10.90;7.70;;;13.60;99.90;;;;;;5079948;28;20211;-71
2021/03/31 06:59:33;;;;;;;20.10;9.63;;;13.40;99.90;;;;;;5081894;28;20467;-70
2021/03/31 07:02:01;;;;;;;19.27;10.00;;;13.10;99.90;;;;;;5081573;28;20419;-69
2021/03/31 07:04:28;;;;;;;22.07;9.27;;;12.90;99.90;;;;;;5081179;28;20414;-70
2021/03/31 07:07:09;;;;;;;22.10;9.70;;;12.80;99.90;;;;;;5081179;28;20437;-70
2021/03/31 07:09:39;;;;;;;17.23;8.53;;;13.10;99.90;;;;;;5080000;28;20788;-70
2021/03/31 07:12:36;;;;;;;23.23;8.27;;;13.60;99.90;;;;;;5082161;28;20499;-68
2021/03/31 07:15:01;;;;;;;17.83;9.27;;;14.20;99.90;;;;;;5080805;28;20993;-72
2021/03/31 07:17:28;;;;;;;15.43;8.40;;;14.80;99.90;;;;;;5081195;28;20548;-71
2021/03/31 07:19:55;;;;;;;19.27;8.70;;;15.10;99.90;;;;;;5080601;28;20680;-70
2021/03/31 07:22:21;;;;;;;24.40;8.77;;;15.10;99.90;;;;;;5081748;28;20517;-70
2021/03/31 07:24:46;;;;;;;10.83;7.90;;;15.10;99.90;;;;;;5079567;28;20565;-70
2021/03/31 07:27:18;;;;;;;16.50;9.23;;;15.30;99.90;;;;;;5081814;28;20180;-70
2021/03/31 07:32:43;;;;;;;15.53;8.83;;;15.30;99.90;;;;;;5080644;28;20467;-70
2021/03/31 07:35:09;;;;;;;18.60;9.70;;;15.50;99.90;;;;;;5082632;28;20428;-70
2021/03/31 07:37:36;;;;;;;21.83;9.57;;;15.90;99.90;;;;;;5079519;28;20488;-71
2021/03/31 07:40:06;;;;;;;12.33;8.73;;;16.00;99.90;;;;;;5076194;28;20993;-70
2021/03/31 07:42:31;;;;;;;19.33;7.87;;;16.10;99.90;;;;;;5079972;28;20524;-70
2021/03/31 07:45:01;;;;;;;17.70;9.50;;;16.20;99.90;;;;;;5080493;28;20892;-71
2021/03/31 07:47:27;;;;;;;18.50;9.70;;;16.80;99.90;;;;;;5080962;28;20791;-70
2021/03/31 07:49:55;;;;;;;23.20;9.67;;;16.90;99.90;;;;;;5081130;28;20814;-70
2021/03/31 07:52:20;;;;;;;17.60;9.23;;;17.30;99.90;;;;;;5082890;28;20876;-70
2021/03/31 07:54:46;;;;;;;15.57;10.00;;;17.50;99.90;;;;;;5078211;28;20423;-71
2021/03/31 07:57:30;;;;;;;17.17;9.30;;;17.70;99.90;;;;;;5082323;28;20216;-69
2021/03/31 07:59:55;;;;;;;14.13;8.50;;;17.70;99.90;;;;;;5080622;28;20169;-70
2021/03/31 08:02:21;;;;;;;20.93;11.23;;;18.10;99.90;;;;;;5081004;28;20810;-69
2021/03/31 08:04:47;;;;;;;14.30;9.07;;;18.20;99.90;;;;;;5079471;28;20179;-70
2021/03/31 08:07:24;;;;;;;18.57;9.43;;;18.40;99.90;;;;;;5082301;28;21281;-70
2021/03/31 08:09:50;;;;;;;19.03;9.90;;;18.50;99.90;;;;;;5079969;28;20172;-71
2021/03/31 08:12:30;;;;;;;32.27;10.23;;;19.00;99.90;;;;;;5081553;28;20421;-70
2021/03/31 08:14:57;;;;;;;23.00;9.70;;;19.40;99.90;;;;;;5080417;28;20218;-69
2021/03/31 08:17:23;;;;;;;19.87;9.80;;;19.70;99.90;;;;;;5081017;28;20464;-69
2021/03/31 08:19:52;;;;;;;18.90;10.40;;;19.90;99.90;;;;;;5079298;28;20788;-70
2021/03/31 08:22:20;;;;;;;19.80;9.70;;;20.00;99.90;;;;;;5081520;28;20180;-72
2021/03/31 08:24:55;;;;;;;16.53;9.73;;;20.20;99.90;;;;;;5078835;28;20419;-71
2021/03/31 08:27:21;;;;;;;13.47;9.37;;;20.40;99.90;;;;;;5081195;28;20417;-71
2021/03/31 08:29:50;;;;;;;13.13;8.33;;;20.60;99.90;;;;;;5079071;28;20418;-71
2021/03/31 08:32:16;;;;;;;18.60;8.90;;;20.80;99.90;;;;;;5081432;28;20429;-69
2021/03/31 08:34:44;;;;;;;15.93;10.00;;;20.80;99.00;;;;;;5078493;28;20415;-70
2021/03/31 08:37:24;;;;;;;19.67;10.03;;;20.90;98.60;;;;;;5082008;28;20199;-70
2021/03/31 08:39:50;;;;;;;22.27;9.40;;;20.90;98.10;;;;;;5082902;28;20935;-70
2021/03/31 08:42:15;;;;;;;20.33;10.07;;;21.30;97.60;;;;;;5085104;28;20621;-69
2021/03/31 08:44:47;;;;;;;18.13;9.27;;;21.70;97.50;;;;;;5082343;28;20495;-70
2021/03/31 08:47:16;;;;;;;31.27;12.47;;;21.80;97.50;;;;;;5085651;28;20202;-71
2021/03/31 08:49:42;;;;;;;16.80;9.17;;;21.70;96.00;;;;;;5082338;28;20866;-69
2021/03/31 08:52:11;;;;;;;32.77;10.23;;;22.00;96.10;;;;;;5085062;28;20426;-67
2021/03/31 08:54:48;;;;;;;19.13;10.80;;;22.10;95.30;;;;;;5082441;28;20414;-70
2021/03/31 08:57:24;;;;;;;24.47;10.13;;;22.20;96.00;;;;;;5081929;28;20537;-71
2021/03/31 08:59:52;;;;;;;18.50;10.50;;;22.50;94.90;;;;;;5082810;28;20423;-69
2021/03/31 09:02:23;;;;;;;25.73;10.20;;;22.50;94.60;;;;;;5083352;28;20505;-70
2021/03/31 09:04:54;;;;;;;18.27;10.90;;;22.80;94.20;;;;;;5086262;28;20785;-69
2021/03/31 09:07:19;;;;;;;22.67;12.00;;;23.00;94.20;;;;;;5082639;28;20434;-69
2021/03/31 09:09:46;;;;;;;16.97;12.40;;;23.20;93.80;;;;;;5084990;28;20418;-70
2021/03/31 09:12:20;;;;;;;22.30;11.83;;;23.30;93.60;;;;;;5081362;28;20212;-69
2021/03/31 09:14:54;;;;;;;15.73;10.73;;;23.70;92.70;;;;;;5082027;28;20411;-70
2021/03/31 09:17:21;;;;;;;21.20;11.27;;;23.80;92.60;;;;;;5084096;28;20461;-73
2021/03/31 09:19:50;;;;;;;19.23;10.87;;;24.00;93.00;;;;;;5082058;28;20415;-73
2021/03/31 09:22:17;;;;;;;19.10;11.13;;;23.90;93.00;;;;;;5084648;28;20445;-70
2021/03/31 09:24:51;;;;;;;28.87;11.50;;;24.00;91.40;;;;;;5081458;28;20431;-70
2021/03/31 09:27:25;;;;;;;20.97;10.90;;;24.20;91.30;;;;;;5081979;28;20426;-70
2021/03/31 09:29:53;;;;;;;21.43;10.00;;;24.30;91.60;;;;;;5084065;28;20881;-70
2021/03/31 09:34:55;;;;;;;24.43;10.93;;;24.70;90.60;;;;;;5080697;28;21045;-71
2021/03/31 09:37:21;;;;;;;17.80;12.10;;;24.50;90.40;;;;;;5083743;28;20465;-71
2021/03/31 09:39:56;;;;;;;22.80;11.57;;;24.70;89.40;;;;;;5081875;28;20638;-71
2021/03/31 09:42:38;;;;;;;24.97;11.00;;;24.80;90.50;;;;;;5083519;28;20297;-71
2021/03/31 09:45:08;;;;;;;22.00;11.63;;;25.10;88.50;;;;;;5084252;28;20418;-71
2021/03/31 09:47:37;;;;;;;26.13;11.80;;;25.30;88.50;;;;;;5082091;28;21038;-72
2021/03/31 09:50:07;;;;;;;18.73;10.77;;;25.50;90.50;;;;;;5082688;28;20500;-72
2021/03/31 09:52:33;;;;;;;14.30;10.93;;;25.60;87.60;;;;;;5082004;28;20865;-71
2021/03/31 09:55:09;;;;;;;18.87;11.13;;;25.50;86.00;;;;;;5082827;28;20419;-73
2021/03/31 09:57:37;;;;;;;23.57;11.53;;;25.70;84.30;;;;;;5081691;28;20215;-71
2021/03/31 10:00:14;;;;;;;23.13;10.70;;;25.90;85.80;;;;;;5083182;28;20528;-70
2021/03/31 10:02:44;;;;;;;22.43;11.77;;;26.30;84.00;;;;;;5080821;28;20435;-71
2021/03/31 10:05:14;;;;;;;14.73;10.70;;;26.40;82.80;;;;;;5084356;28;20422;-71
2021/03/31 10:07:40;;;;;;;24.90;11.30;;;26.70;82.50;;;;;;5081115;28;20415;-70
2021/03/31 10:10:07;;;;;;;18.83;11.60;;;27.10;82.50;;;;;;5083701;28;20783;-72
2021/03/31 10:12:34;;;;;;;22.43;11.87;;;26.90;81.30;;;;;;5081555;28;20192;-71
2021/03/31 10:15:03;;;;;;;21.37;11.00;;;26.70;79.30;;;;;;5082529;28;20423;-72
2021/03/31 10:17:31;;;;;;;23.00;10.43;;;26.70;80.50;;;;;;5080818;28;20890;-71
2021/03/31 10:20:14;;;;;;;22.20;12.37;;;26.80;79.80;;;;;;5082331;28;20760;-70
2021/03/31 10:22:40;;;;;;;18.40;11.00;;;26.70;77.40;;;;;;5080308;28;20434;-71
2021/03/31 10:25:07;;;;;;;17.27;12.00;;;26.60;76.80;;;;;;5083302;28;20446;-70
2021/03/31 10:27:44;;;;;;;24.87;11.80;;;26.40;78.00;;;;;;5081411;28;20448;-72
2021/03/31 10:30:32;;;;;;;18.70;12.57;;;26.40;77.50;;;;;;5080345;28;20815;-71
2021/03/31 10:32:58;;;;;;;19.00;12.10;;;26.60;77.90;;;;;;5081932;28;20845;-71
2021/03/31 10:35:45;;;;;;;22.57;11.50;;;26.40;77.30;;;;;;5082397;28;20836;-71
2021/03/31 10:38:20;;;;;;;18.53;10.20;;;26.50;78.10;;;;;;5083575;28;20845;-71
2021/03/31 10:41:20;;;;;;;18.17;10.87;;;26.60;76.00;;;;;;5080310;28;20429;-74
2021/03/31 10:46:49;;;;;;;20.30;10.90;;;26.60;77.00;;;;;;5079637;28;20963;-72
2021/03/31 10:49:32;;;;;;;18.80;11.40;;;27.30;78.80;;;;;;5082669;28;20944;-73
2021/03/31 10:52:06;;;;;;;14.37;10.23;;;27.40;74.80;;;;;;5081695;28;20938;-70
2021/03/31 10:54:32;;;;;;;18.93;10.10;;;27.60;73.70;;;;;;5080885;28;20523;-74
2021/03/31 10:57:10;;;;;;;16.47;10.70;;;27.80;73.80;;;;;;5081828;28;20466;-72
2021/03/31 10:59:36;;;;;;;20.50;11.10;;;27.50;70.40;;;;;;5079946;28;20268;-72
2021/03/31 11:02:01;;;;;;;17.90;9.93;;;27.80;75.00;;;;;;5081851;28;20498;-71
2021/03/31 11:04:27;;;;;;;16.30;9.67;;;28.00;72.10;;;;;;5081161;28;20273;-73
2021/03/31 11:06:53;;;;;;;16.57;10.80;;;28.10;70.20;;;;;;5081004;28;20225;-72
2021/03/31 11:09:19;;;;;;;19.13;11.67;;;27.80;70.60;;;;;;5082288;28;20182;-72
2021/03/31 11:11:45;;;;;;;18.40;11.60;;;27.40;70.40;;;;;;5079988;28;20183;-74
2021/03/31 11:14:10;;;;;;;19.80;11.03;;;27.10;69.70;;;;;;5082480;28;20521;-72
2021/03/31 11:16:39;;;;;;;15.00;11.07;;;27.10;69.20;;;;;;5080025;28;20205;-72
2021/03/31 11:26:49;;;;;;;19.67;10.83;;;27.30;70.00;;;;;;5080116;28;20464;-71
2021/03/31 11:29:14;;;;;;;20.50;11.03;;;27.30;68.40;;;;;;5082279;28;20421;-71
2021/03/31 11:31:40;;;;;;;14.10;10.63;;;27.10;67.40;;;;;;5079529;28;20176;-72
2021/03/31 11:34:06;;;;;;;21.20;11.53;;;27.20;68.70;;;;;;5081583;28;20196;-71
2021/03/31 11:36:33;;;;;;;20.60;12.47;;;27.40;68.80;;;;;;5080384;28;20202;-71
2021/03/31 11:38:59;;;;;;;18.37;11.10;;;27.60;68.30;;;;;;5081096;28;20658;-71
2021/03/31 11:41:25;;;;;;;16.23;9.77;;;27.40;68.40;;;;;;5081503;28;20487;-73
2021/03/31 11:43:50;;;;;;;16.63;12.10;;;27.10;66.20;;;;;;5078570;28;20196;-71
2021/03/31 11:46:16;;;;;;;14.17;10.77;;;26.80;65.80;;;;;;5082287;28;20548;-71
2021/03/31 11:48:41;;;;;;;19.60;10.70;;;26.80;68.30;;;;;;5077884;28;20646;-70
2021/03/31 11:51:07;;;;;;;21.10;14.37;;;26.90;69.80;;;;;;5083423;28;20172;-71
2021/03/31 11:53:32;;;;;;;17.23;11.20;;;26.90;69.00;;;;;;5079759;28;20194;-70
2021/03/31 11:55:59;;;;;;;16.80;11.80;;;27.10;69.80;;;;;;5080795;28;20669;-71
2021/03/31 11:58:25;;;;;;;18.53;10.77;;;27.30;66.70;;;;;;5081207;28;20541;-71
2021/03/31 12:00:50;;;;;;;21.37;13.37;;;27.10;64.60;;;;;;5079816;28;20430;-71
2021/03/31 12:03:18;;;;;;;22.00;12.00;;;26.80;65.00;;;;;;5081841;28;20196;-71
2021/03/31 12:05:43;;;;;;;19.27;11.30;;;26.80;67.30;;;;;;5079006;28;20218;-70
2021/03/31 12:08:08;;;;;;;22.13;12.10;;;27.00;67.50;;;;;;5082288;28;20741;-71
2021/03/31 12:10:34;;;;;;;21.03;12.83;;;27.10;67.10;;;;;;5078786;28;20181;-71
2021/03/31 12:12:59;;;;;;;19.80;12.13;;;27.00;64.20;;;;;;5081418;28;20242;-71
2021/03/31 12:15:25;;;;;;;16.23;11.87;;;26.50;66.40;;;;;;5084875;28;20629;-71
2021/03/31 12:17:51;;;;;;;20.20;11.40;;;26.50;65.00;;;;;;5083342;28;20752;-70
2021/03/31 12:20:18;;;;;;;17.47;12.23;;;26.60;64.40;;;;;;5085886;28;20496;-71
2021/03/31 12:22:45;;;;;;;20.00;12.60;;;26.50;64.50;;;;;;5082468;28;20588;-71
2021/03/31 12:25:12;;;;;;;21.53;12.30;;;26.50;64.10;;;;;;5082687;28;20450;-71
2021/03/31 12:27:39;;;;;;;18.90;11.13;;;26.40;65.20;;;;;;5086025;28;20429;-72
2021/03/31 12:30:10;;;;;;;16.17;10.83;;;26.40;66.20;;;;;;5082989;28;20415;-70
2021/03/31 12:32:37;;;;;;;15.80;11.20;;;26.20;66.10;;;;;;5085415;28;20822;-71
2021/03/31 12:35:03;;;;;;;11.70;8.17;;;26.20;66.00;;;;;;5083180;28;20432;-71
2021/03/31 12:37:29;;;;;;;11.17;7.50;;;26.50;65.10;;;;;;5083386;28;20487;-71
2021/03/31 12:39:55;;;;;;;10.10;6.70;;;26.50;60.30;;;;;;5084357;28;20413;-71
2021/03/31 12:42:21;;;;;;;10.93;7.20;;;26.70;62.80;;;;;;5083073;28;20982;-72
2021/03/31 12:44:47;;;;;;;10.70;6.33;;;26.70;62.70;;;;;;5085378;28;20198;-73
2021/03/31 12:47:17;;;;;;;15.33;8.90;;;26.80;63.20;;;;;;5082391;28;20426;-74
2021/03/31 12:49:42;;;;;;;11.30;8.30;;;26.70;63.00;;;;;;5085666;28;20191;-72
2021/03/31 12:52:11;;;;;;;14.23;8.83;;;26.60;64.50;;;;;;5082084;28;20418;-72
2021/03/31 12:54:51;;;;;;;16.20;8.77;;;26.50;62.00;;;;;;5085316;28;20176;-72
2021/03/31 12:57:17;;;;;;;17.43;10.13;;;26.40;65.00;;;;;;5082465;28;20462;-72
2021/03/31 12:59:42;;;;;;;15.17;9.30;;;26.40;63.80;;;;;;5085634;28;20440;-72
2021/03/31 13:02:08;;;;;;;13.13;9.30;;;26.20;63.10;;;;;;5081844;28;20657;-73
2021/03/31 13:04:34;;;;;;;12.27;8.83;;;26.10;63.30;;;;;;5084870;28;20168;-72
2021/03/31 13:07:00;;;;;;;13.07;9.30;;;25.70;63.10;;;;;;5083398;28;20953;-71
2021/03/31 13:09:27;;;;;;;16.23;8.40;;;25.70;63.40;;;;;;5083390;28;20548;-72
2021/03/31 13:11:53;;;;;;;14.60;8.70;;;25.70;65.20;;;;;;5084424;28;20176;-73
2021/03/31 13:14:40;;;;;;;15.00;8.43;;;25.80;65.70;;;;;;5081909;28;20450;-72